createdAt,value
2018-12-27T00:01:51.505Z,3.23
2018-12-27T00:04:25.940Z,2.90
2018-12-27T00:06:59.712Z,2.87
2018-12-27T00:09:33.737Z,3.13
2018-12-27T00:12:08.292Z,2.70
2018-12-27T00:14:42.369Z,2.50
2018-12-27T00:17:16.212Z,2.43
2018-12-27T00:19:50.015Z,2.30
2018-12-27T00:22:24.108Z,2.40
2018-12-27T00:24:58.592Z,2.90
2018-12-27T00:27:32.748Z,2.57
2018-12-27T00:30:07.312Z,2.30
2018-12-27T00:32:41.086Z,2.73
2018-12-27T00:35:15.577Z,2.70
2018-12-27T00:40:29.891Z,2.40
2018-12-27T00:43:03.675Z,2.80
2018-12-27T00:45:38.176Z,3.00
2018-12-27T00:48:11.925Z,3.07
2018-12-27T00:50:45.741Z,3.10
2018-12-27T00:53:19.542Z,2.50
2018-12-27T00:55:53.280Z,3.10
2018-12-27T00:58:26.976Z,2.33
2018-12-27T01:03:42.299Z,2.50
2018-12-27T01:08:57.540Z,2.63
2018-12-27T01:11:31.362Z,2.53
2018-12-27T01:14:05.182Z,2.47
2018-12-27T01:19:20.614Z,2.50
2018-12-27T01:21:55.157Z,2.60
2018-12-27T01:27:10.342Z,3.00
2018-12-27T01:29:44.841Z,2.70
2018-12-27T01:32:18.653Z,3.10
2018-12-27T01:34:52.605Z,3.10
2018-12-27T01:37:26.688Z,3.13
2018-12-27T01:40:00.744Z,2.90
2018-12-27T01:42:34.482Z,3.10
2018-12-27T01:45:08.234Z,2.90
2018-12-27T01:47:42.072Z,3.03
2018-12-27T01:50:15.886Z,3.03
2018-12-27T01:55:36.798Z,3.00
2018-12-27T01:58:10.586Z,2.83
2018-12-27T02:00:44.329Z,3.50
2018-12-27T02:03:18.078Z,3.20
2018-12-27T02:05:51.885Z,2.67
2018-12-27T02:08:25.703Z,3.10
2018-12-27T02:10:59.476Z,2.80
2018-12-27T02:13:33.968Z,3.20
2018-12-27T02:16:07.824Z,2.83
2018-12-27T02:18:41.673Z,3.50
2018-12-27T02:21:15.432Z,3.17
2018-12-27T02:23:49.178Z,2.70
2018-12-27T02:26:22.970Z,3.03
2018-12-27T02:28:56.741Z,2.80
2018-12-27T02:31:31.385Z,3.17
2018-12-27T02:34:05.465Z,2.80
2018-12-27T02:36:39.985Z,2.87
2018-12-27T02:39:14.467Z,2.90
2018-12-27T02:41:48.253Z,2.13
2018-12-27T02:44:21.987Z,2.40
2018-12-27T02:46:56.085Z,2.23
2018-12-27T02:49:29.868Z,2.47
2018-12-27T02:52:03.680Z,2.57
2018-12-27T02:54:37.484Z,2.73
2018-12-27T02:57:11.647Z,2.17
2018-12-27T02:59:45.449Z,2.47
2018-12-27T03:02:19.216Z,2.10
2018-12-27T03:04:53.059Z,2.37
2018-12-27T03:07:26.837Z,2.60
2018-12-27T03:10:00.810Z,2.13
2018-12-27T03:12:35.566Z,2.50
2018-12-27T03:15:09.302Z,2.10
2018-12-27T03:17:43.067Z,2.33
2018-12-27T03:20:17.160Z,2.20
2018-12-27T03:22:50.912Z,2.13
2018-12-27T03:25:24.769Z,2.27
2018-12-27T03:27:58.522Z,2.10
2018-12-27T03:30:32.318Z,2.20
2018-12-27T03:33:06.123Z,1.87
2018-12-27T03:38:26.168Z,2.20
2018-12-27T03:40:59.952Z,2.20
2018-12-27T03:43:33.697Z,2.10
2018-12-27T03:46:07.461Z,2.07
2018-12-27T03:48:41.234Z,2.17
2018-12-27T03:51:15.394Z,2.17
2018-12-27T03:53:49.156Z,1.90
2018-12-27T03:56:22.900Z,1.63
2018-12-27T03:58:56.730Z,1.90
2018-12-27T04:01:30.580Z,2.17
2018-12-27T04:04:04.356Z,1.80
2018-12-27T04:06:38.110Z,2.13
2018-12-27T04:09:11.907Z,2.40
2018-12-27T04:11:45.638Z,2.47
2018-12-27T04:14:19.421Z,1.90
2018-12-27T04:16:53.181Z,1.97
2018-12-27T04:19:27.232Z,2.20
2018-12-27T04:22:00.961Z,2.00
2018-12-27T04:27:14.272Z,2.00
2018-12-27T04:29:48.709Z,2.00
2018-12-27T04:32:22.537Z,2.17
2018-12-27T04:34:56.312Z,2.50
2018-12-27T04:37:30.058Z,2.17
2018-12-27T04:40:03.824Z,2.20
2018-12-27T04:42:37.637Z,2.57
2018-12-27T04:45:11.435Z,2.10
2018-12-27T04:47:45.205Z,2.50
2018-12-27T04:50:18.963Z,2.30
2018-12-27T04:52:52.803Z,2.20
2018-12-27T04:55:26.626Z,2.30
2018-12-27T04:58:00.434Z,1.83
2018-12-27T05:00:34.282Z,1.83
2018-12-27T05:03:08.335Z,1.77
2018-12-27T05:05:42.131Z,2.00
2018-12-27T05:08:16.314Z,2.10
2018-12-27T05:10:50.020Z,2.17
2018-12-27T05:13:23.819Z,2.10
2018-12-27T05:15:57.570Z,1.80
2018-12-27T05:18:31.370Z,2.33
2018-12-27T05:21:05.162Z,2.20
2018-12-27T05:23:39.726Z,2.30
2018-12-27T05:26:13.501Z,1.90
2018-12-27T05:28:47.625Z,2.40
2018-12-27T05:31:21.369Z,2.30
2018-12-27T05:33:55.874Z,2.30
2018-12-27T05:36:29.690Z,2.30
2018-12-27T05:39:04.534Z,2.17
2018-12-27T05:41:38.375Z,2.00
2018-12-27T05:44:12.125Z,2.30
2018-12-27T05:46:45.925Z,2.63
2018-12-27T05:49:19.685Z,2.10
2018-12-27T05:51:53.466Z,2.57
2018-12-27T05:54:27.213Z,2.13
2018-12-27T05:57:01.019Z,2.20
2018-12-27T05:59:34.796Z,2.27
2018-12-27T06:02:08.638Z,2.93
2018-12-27T06:10:04.225Z,1.73
2018-12-27T06:12:38.657Z,2.03
2018-12-27T06:17:58.352Z,3.47
2018-12-27T06:20:32.048Z,3.80
2018-12-27T06:23:06.628Z,4.20
2018-12-27T06:28:22.634Z,2.30
2018-12-27T06:30:56.364Z,2.57
2018-12-27T06:33:30.812Z,2.50
2018-12-27T06:36:05.347Z,2.77
2018-12-27T06:38:39.127Z,2.73
2018-12-27T06:41:13.687Z,2.67
2018-12-27T06:43:47.464Z,2.47
2018-12-27T06:46:22.357Z,2.57
2018-12-27T06:48:56.123Z,1.90
2018-12-27T06:51:29.881Z,1.73
2018-12-27T06:54:03.696Z,1.70
2018-12-27T06:56:37.492Z,1.70
2018-12-27T07:01:52.731Z,1.60
2018-12-27T07:04:26.731Z,1.70
2018-12-27T07:07:01.286Z,1.43
2018-12-27T07:09:35.083Z,1.67
2018-12-27T07:12:08.834Z,1.43
2018-12-27T07:14:42.572Z,1.60
2018-12-27T07:17:16.352Z,2.00
2018-12-27T07:19:50.377Z,2.00
2018-12-27T07:22:24.182Z,1.93
2018-12-27T07:24:57.937Z,1.73
2018-12-27T07:27:31.713Z,1.70
2018-12-27T07:32:46.881Z,1.87
2018-12-27T07:38:02.549Z,1.97
2018-12-27T07:40:36.245Z,2.03
2018-12-27T07:43:10.031Z,2.20
2018-12-27T07:45:43.811Z,2.30
2018-12-27T07:48:18.594Z,1.93
2018-12-27T07:50:52.391Z,2.23
2018-12-27T07:53:26.227Z,1.93
2018-12-27T07:55:59.991Z,1.93
2018-12-27T08:01:14.049Z,2.70
2018-12-27T08:03:47.803Z,2.73
2018-12-27T08:06:21.626Z,2.40
2018-12-27T08:08:56.148Z,2.50
2018-12-27T08:11:31.067Z,3.13
2018-12-27T08:14:04.795Z,4.13
2018-12-27T08:16:39.633Z,9.47
2018-12-27T08:19:13.404Z,6.23
2018-12-27T08:21:47.479Z,3.90
2018-12-27T08:24:21.231Z,5.00
2018-12-27T08:26:55.013Z,3.13
2018-12-27T08:29:28.764Z,2.07
2018-12-27T08:32:03.622Z,2.30
2018-12-27T08:34:37.529Z,2.00
2018-12-27T08:37:11.274Z,1.93
2018-12-27T08:39:45.035Z,1.70
2018-12-27T08:42:18.876Z,1.60
2018-12-27T08:44:52.714Z,1.40
2018-12-27T08:47:26.465Z,1.53
2018-12-27T08:50:00.226Z,1.30
2018-12-27T08:52:35.040Z,1.47
2018-12-27T08:55:09.161Z,1.40
2018-12-27T08:57:42.898Z,1.40
2018-12-27T09:00:17.037Z,1.20
2018-12-27T09:02:50.822Z,1.17
2018-12-27T09:05:24.653Z,1.13
2018-12-27T09:07:58.424Z,1.33
2018-12-27T09:10:32.637Z,1.50
2018-12-27T09:13:06.364Z,1.60
2018-12-27T09:15:40.505Z,1.70
2018-12-27T09:18:14.265Z,2.47
2018-12-27T09:20:48.070Z,3.23
2018-12-27T09:23:21.852Z,3.70
2018-12-27T09:25:55.629Z,3.57
2018-12-27T09:28:29.358Z,4.20
2018-12-27T09:33:43.215Z,3.00
2018-12-27T09:39:00.019Z,3.03
2018-12-27T09:41:34.065Z,3.13
2018-12-27T09:46:49.629Z,3.00
2018-12-27T09:49:23.334Z,2.93
2018-12-27T09:52:02.102Z,3.93
2018-12-27T09:54:30.913Z,5.40
2018-12-27T09:57:04.633Z,2.92
2018-12-27T09:59:38.399Z,2.77
2018-12-27T10:02:13.630Z,3.42
2018-12-27T10:04:48.481Z,2.40
2018-12-27T10:07:22.253Z,3.00
2018-12-27T10:09:56.074Z,3.40
2018-12-27T10:20:33.745Z,2.02
2018-12-27T10:23:08.190Z,1.32
2018-12-27T10:25:42.312Z,1.10
2018-12-27T10:28:16.108Z,1.07
2018-12-27T10:30:50.157Z,1.22
2018-12-27T10:33:23.895Z,1.32
2018-12-27T10:35:58.408Z,2.27
2018-12-27T10:38:32.923Z,2.00
2018-12-27T10:41:06.732Z,2.62
2018-12-27T10:43:41.345Z,2.75
2018-12-27T10:46:15.484Z,2.50
2018-12-27T10:48:50.307Z,1.92
2018-12-27T10:51:24.127Z,2.22
2018-12-27T10:53:58.138Z,1.62
2018-12-27T10:56:31.814Z,1.98
2018-12-27T10:59:05.579Z,2.05
2018-12-27T11:01:39.341Z,1.92
2018-12-27T11:04:13.822Z,2.05
2018-12-27T11:06:47.932Z,2.30
2018-12-27T11:09:21.733Z,2.60
2018-12-27T11:11:55.589Z,3.08
2018-12-27T11:14:30.464Z,2.77
2018-12-27T11:17:04.208Z,2.62
2018-12-27T11:19:37.973Z,2.35
2018-12-27T11:22:11.784Z,2.15
2018-12-27T11:24:45.561Z,2.20
2018-12-27T11:27:20.080Z,2.22
2018-12-27T11:29:54.605Z,1.77
2018-12-27T11:32:28.356Z,2.20
2018-12-27T11:35:02.395Z,1.98
2018-12-27T11:37:36.176Z,2.27
2018-12-27T11:40:10.008Z,2.12
2018-12-27T11:42:43.806Z,1.98
2018-12-27T11:45:17.593Z,2.30
2018-12-27T11:50:31.164Z,2.45
2018-12-27T11:53:05.061Z,1.82
2018-12-27T11:55:38.977Z,2.00
2018-12-27T11:58:12.756Z,2.20
2018-12-27T12:00:46.496Z,3.30
2018-12-27T12:03:20.996Z,2.90
2018-12-27T12:05:54.760Z,1.70
2018-12-27T12:08:28.557Z,1.87
2018-12-27T12:11:03.107Z,1.62
2018-12-27T12:24:20.705Z,1.32
2018-12-27T12:26:54.706Z,1.50
2018-12-27T12:29:28.525Z,1.40
2018-12-27T12:34:42.585Z,1.60
2018-12-27T12:37:16.296Z,1.45
2018-12-27T12:39:50.145Z,1.47
2018-12-27T12:42:32.935Z,1.27
2018-12-27T12:44:58.494Z,1.60
2018-12-27T12:47:32.991Z,1.17
2018-12-27T12:50:08.734Z,1.15
2018-12-27T12:52:42.812Z,1.60
2018-12-27T12:55:16.576Z,1.00
2018-12-27T12:57:51.117Z,1.62
2018-12-27T13:00:25.641Z,1.20
2018-12-27T13:02:59.423Z,1.57
2018-12-27T13:05:33.429Z,1.25
2018-12-27T13:10:46.854Z,1.55
2018-12-27T13:18:47.117Z,1.20
2018-12-27T13:21:14.725Z,1.00
2018-12-27T13:23:49.304Z,1.05
2018-12-27T13:29:02.600Z,1.20
2018-12-27T13:31:37.074Z,1.40
2018-12-27T13:36:51.407Z,1.00
2018-12-27T13:39:25.124Z,1.20
2018-12-27T13:41:59.290Z,1.12
2018-12-27T13:49:58.584Z,1.60
2018-12-27T13:52:32.462Z,1.87
2018-12-27T13:57:48.798Z,2.27
2018-12-27T14:00:22.497Z,2.08
2018-12-27T14:02:56.349Z,2.67
2018-12-27T14:08:09.959Z,3.10
2018-12-27T14:10:43.694Z,2.13
2018-12-27T14:13:17.549Z,1.77
2018-12-27T14:18:36.792Z,2.77
2018-12-27T14:21:10.524Z,2.30
2018-12-27T14:23:44.441Z,2.05
2018-12-27T14:26:18.244Z,1.50
2018-12-27T14:28:52.690Z,1.55
2018-12-27T14:31:26.443Z,1.90
2018-12-27T14:36:41.929Z,1.50
2018-12-27T14:39:15.669Z,1.40
2018-12-27T14:41:49.492Z,1.57
2018-12-27T14:44:24.000Z,1.97
2018-12-27T14:49:42.108Z,1.40
2018-12-27T14:52:15.850Z,1.60
2018-12-27T14:54:50.434Z,1.40
2018-12-27T14:57:24.207Z,1.60
2018-12-27T14:59:58.774Z,1.60
2018-12-27T15:05:12.241Z,1.60
2018-12-27T15:10:31.961Z,2.00
2018-12-27T15:13:05.990Z,1.70
2018-12-27T15:15:39.794Z,2.08
2018-12-27T15:18:14.368Z,1.80
2018-12-27T15:20:48.228Z,1.50
2018-12-27T15:23:21.982Z,1.20
2018-12-27T15:25:56.581Z,1.30
2018-12-27T15:28:30.701Z,1.40
2018-12-27T15:31:04.521Z,1.30
2018-12-27T15:33:38.650Z,1.90
2018-12-27T15:36:12.487Z,1.80
2018-12-27T15:38:46.281Z,1.77
2018-12-27T15:41:20.913Z,3.00
2018-12-27T15:43:54.786Z,3.70
2018-12-27T15:46:28.566Z,8.27
2018-12-27T15:49:02.355Z,8.27
2018-12-27T15:51:36.937Z,8.57
2018-12-27T15:54:10.689Z,6.37
2018-12-27T15:56:44.549Z,3.13
2018-12-27T15:59:18.330Z,3.60
2018-12-27T16:01:52.410Z,3.90
2018-12-27T16:04:26.910Z,4.43
2018-12-27T16:09:42.547Z,4.83
2018-12-27T16:12:17.004Z,4.30
2018-12-27T16:14:51.269Z,3.27
2018-12-27T16:17:26.305Z,3.87
2018-12-27T16:20:01.540Z,3.70
2018-12-27T16:27:58.920Z,8.07
2018-12-27T16:30:32.672Z,8.43
2018-12-27T16:33:06.861Z,6.27
2018-12-27T16:35:40.627Z,6.60
2018-12-27T16:38:14.665Z,6.93
2018-12-27T16:40:49.178Z,5.70
2018-12-27T16:43:22.949Z,4.83
2018-12-27T16:45:56.752Z,5.80
2018-12-27T16:48:30.818Z,5.23
2018-12-27T16:51:05.344Z,5.40
2018-12-27T16:53:40.201Z,5.50
2018-12-27T16:58:56.091Z,6.75
2018-12-27T17:01:29.873Z,7.30
2018-12-27T17:04:03.709Z,6.70
2018-12-27T17:09:20.433Z,11.87
2018-12-27T17:11:55.558Z,10.57
2018-12-27T17:17:20.034Z,22.50
2018-12-27T17:19:53.757Z,18.73
2018-12-27T17:22:27.578Z,13.50
2018-12-27T17:27:42.282Z,10.80
2018-12-27T17:30:16.044Z,9.13
2018-12-27T17:32:49.957Z,8.70
2018-12-27T17:35:23.823Z,9.50
2018-12-27T17:37:57.578Z,10.13
2018-12-27T17:43:17.945Z,14.00
2018-12-27T17:48:33.517Z,16.30
2018-12-27T17:51:07.279Z,16.27
2018-12-27T17:53:41.149Z,16.33
2018-12-27T17:58:56.482Z,18.10
2018-12-27T18:01:30.206Z,16.53
2018-12-27T18:06:45.659Z,16.50
2018-12-27T18:12:03.626Z,12.27
2018-12-27T18:19:58.536Z,11.43
2018-12-27T18:22:32.250Z,11.57
2018-12-27T18:27:45.962Z,12.43
2018-12-27T18:30:19.742Z,12.88
2018-12-27T18:32:53.896Z,11.77
2018-12-27T18:38:09.875Z,13.93
2018-12-27T18:40:44.304Z,12.27
2018-12-27T18:43:18.108Z,13.63
2018-12-27T18:48:34.721Z,15.80
2018-12-27T18:51:08.434Z,14.33
2018-12-27T18:53:42.476Z,14.43
2018-12-27T18:58:59.357Z,10.70
2018-12-27T19:01:33.057Z,10.80
2018-12-27T19:06:48.289Z,12.17
2018-12-27T19:09:22.014Z,11.47
2018-12-27T19:12:51.565Z,13.27
2018-12-27T19:18:26.776Z,14.87
2018-12-27T19:21:21.006Z,13.77
2018-12-27T19:23:55.126Z,15.13
2018-12-27T19:29:12.229Z,15.53
2018-12-27T19:31:46.077Z,14.93
2018-12-27T19:34:19.976Z,14.67
2018-12-27T19:39:33.260Z,15.47
2018-12-27T19:42:07.766Z,13.50
2018-12-27T19:47:23.077Z,12.87
2018-12-27T19:49:57.542Z,13.50
2018-12-27T19:52:31.716Z,12.80
2018-12-27T19:57:52.437Z,12.60
2018-12-27T20:00:26.885Z,13.97
2018-12-27T20:03:00.726Z,15.50
2018-12-27T20:08:14.631Z,18.77
2018-12-27T20:10:48.413Z,14.53
2018-12-27T20:13:23.014Z,10.47
2018-12-27T20:18:42.746Z,5.07
2018-12-27T20:21:20.538Z,6.20
2018-12-27T20:23:54.600Z,9.07
2018-12-27T20:26:28.431Z,5.53
2018-12-27T20:29:02.219Z,7.07
2018-12-27T20:37:02.656Z,3.43
2018-12-27T20:39:36.373Z,4.27
2018-12-27T20:42:10.310Z,6.63
2018-12-27T20:44:44.361Z,9.10
2018-12-27T20:50:00.721Z,6.80
2018-12-27T20:52:34.736Z,5.70
2018-12-27T20:55:08.845Z,5.23
2018-12-27T20:57:42.671Z,4.37
2018-12-27T21:00:16.410Z,5.00
2018-12-27T21:02:50.914Z,4.43
2018-12-27T21:05:24.957Z,6.30
2018-12-27T21:10:40.658Z,3.63
2018-12-27T21:13:14.188Z,4.07
2018-12-27T21:15:48.009Z,9.50
2018-12-27T21:21:01.717Z,8.50
2018-12-27T21:23:36.229Z,8.53
2018-12-27T21:28:51.465Z,9.90
2018-12-27T21:31:25.198Z,10.80
2018-12-27T21:36:38.520Z,10.37
2018-12-27T21:39:12.221Z,10.97
2018-12-27T21:41:46.100Z,10.08
2018-12-27T21:47:06.072Z,11.77
2018-12-27T21:49:40.227Z,11.70
2018-12-27T21:52:14.077Z,12.87
2018-12-27T21:57:33.740Z,10.57
2018-12-27T22:00:08.652Z,12.37
2018-12-27T22:02:43.187Z,12.30
2018-12-27T22:07:58.406Z,14.77
2018-12-27T22:10:32.146Z,14.03
2018-12-27T22:13:06.258Z,17.20
2018-12-27T22:18:20.412Z,12.87
2018-12-27T22:20:54.114Z,14.83
2018-12-27T22:23:27.959Z,13.57
2018-12-27T22:28:50.464Z,14.77
2018-12-27T22:31:24.169Z,15.20
2018-12-27T22:36:39.477Z,16.27
2018-12-27T22:39:13.206Z,14.40
2018-12-27T22:41:47.104Z,14.87
2018-12-27T22:47:02.639Z,14.47
2018-12-27T22:49:36.418Z,13.63
2018-12-27T22:52:10.276Z,13.27
2018-12-27T22:57:23.605Z,9.60
2018-12-27T22:59:59.405Z,10.50
2018-12-27T23:02:33.249Z,9.63
2018-12-27T23:05:07.846Z,6.80
2018-12-27T23:10:23.866Z,7.00
2018-12-27T23:12:57.633Z,6.67
2018-12-27T23:18:11.157Z,6.33
2018-12-27T23:20:44.888Z,6.23
2018-12-27T23:23:18.741Z,4.50
2018-12-27T23:28:32.065Z,3.83
2018-12-27T23:31:05.774Z,3.77
2018-12-27T23:33:39.603Z,3.93
2018-12-27T23:36:14.122Z,4.07
2018-12-27T23:38:50.462Z,4.20
2018-12-27T23:41:22.203Z,4.43
2018-12-27T23:43:56.000Z,4.33
2018-12-27T23:46:29.841Z,4.77
2018-12-27T23:49:03.619Z,5.03
2018-12-27T23:51:37.400Z,4.70
2018-12-27T23:54:11.458Z,5.37
2018-12-27T23:56:45.214Z,5.30
2018-12-27T23:59:19.020Z,4.97
